sensor_id;sensor_type;location;lat;lon;timestamp;P1;durP1;ratioP1;P2;durP2;ratioP2
7013;SDS011;3547;50.774;12.918;2023-04-03T00:00:29;2.40;;;1.00;;
7013;SDS011;3547;50.774;12.918;2023-04-03T00:02:55;2.33;;;1.07;;
7013;SDS011;3547;50.774;12.918;2023-04-03T00:05:21;0.70;;;0.70;;
7013;SDS011;3547;50.774;12.918;2023-04-03T00:07:47;4.00;;;1.37;;
7013;SDS011;3547;50.774;12.918;2023-04-03T00:10:15;1.33;;;0.77;;
7013;SDS011;3547;50.774;12.918;2023-04-03T00:12:41;1.87;;;1.33;;
7013;SDS011;3547;50.774;12.918;2023-04-03T00:15:08;1.00;;;0.70;;
7013;SDS011;3547;50.774;12.918;2023-04-03T00:17:34;2.67;;;0.80;;
7013;SDS011;3547;50.774;12.918;2023-04-03T00:20:01;1.10;;;0.67;;
7013;SDS011;3547;50.774;12.918;2023-04-03T00:22:28;4.80;;;0.90;;
7013;SDS011;3547;50.774;12.918;2023-04-03T00:24:54;0.57;;;0.53;;
7013;SDS011;3547;50.774;12.918;2023-04-03T00:27:20;1.47;;;0.73;;
7013;SDS011;3547;50.774;12.918;2023-04-03T00:29:47;3.60;;;1.00;;
7013;SDS011;3547;50.774;12.918;2023-04-03T00:32:13;1.00;;;0.90;;
7013;SDS011;3547;50.774;12.918;2023-04-03T00:34:39;3.20;;;0.40;;
7013;SDS011;3547;50.774;12.918;2023-04-03T00:37:05;5.13;;;1.03;;
7013;SDS011;3547;50.774;12.918;2023-04-03T00:39:32;1.60;;;0.73;;
7013;SDS011;3547;50.774;12.918;2023-04-03T00:41:58;2.97;;;0.90;;
7013;SDS011;3547;50.774;12.918;2023-04-03T00:46:59;2.43;;;0.90;;
7013;SDS011;3547;50.774;12.918;2023-04-03T00:49:27;2.57;;;1.13;;
7013;SDS011;3547;50.774;12.918;2023-04-03T00:51:54;2.43;;;1.13;;
7013;SDS011;3547;50.774;12.918;2023-04-03T00:54:22;1.47;;;0.77;;
7013;SDS011;3547;50.774;12.918;2023-04-03T00:56:49;2.37;;;0.80;;
7013;SDS011;3547;50.774;12.918;2023-04-03T00:59:20;1.87;;;1.00;;
7013;SDS011;3547;50.774;12.918;2023-04-03T01:01:51;0.53;;;0.53;;
7013;SDS011;3547;50.774;12.918;2023-04-03T01:07:02;2.10;;;0.90;;
7013;SDS011;3547;50.774;12.918;2023-04-03T01:09:31;3.00;;;0.80;;
7013;SDS011;3547;50.774;12.918;2023-04-03T01:12:41;1.37;;;1.10;;
7013;SDS011;3547;50.774;12.918;2023-04-03T01:14:50;2.30;;;0.93;;
7013;SDS011;3547;50.774;12.918;2023-04-03T01:22:59;5.17;;;1.20;;
7013;SDS011;3547;50.774;12.918;2023-04-03T01:25:43;1.70;;;0.63;;
7013;SDS011;3547;50.774;12.918;2023-04-03T01:28:19;1.63;;;1.03;;
7013;SDS011;3547;50.774;12.918;2023-04-03T01:33:46;0.70;;;0.60;;
7013;SDS011;3547;50.774;12.918;2023-04-03T01:36:17;4.30;;;0.70;;
7013;SDS011;3547;50.774;12.918;2023-04-03T01:38:46;1.47;;;0.70;;
7013;SDS011;3547;50.774;12.918;2023-04-03T01:41:12;1.40;;;0.93;;
7013;SDS011;3547;50.774;12.918;2023-04-03T01:43:39;0.50;;;0.50;;
7013;SDS011;3547;50.774;12.918;2023-04-03T01:46:05;1.80;;;0.97;;
7013;SDS011;3547;50.774;12.918;2023-04-03T01:48:31;1.23;;;0.77;;
7013;SDS011;3547;50.774;12.918;2023-04-03T01:50:57;1.27;;;1.13;;
7013;SDS011;3547;50.774;12.918;2023-04-03T01:53:23;1.73;;;0.83;;
7013;SDS011;3547;50.774;12.918;2023-04-03T01:55:50;2.27;;;0.90;;
7013;SDS011;3547;50.774;12.918;2023-04-03T01:58:16;1.27;;;0.80;;
7013;SDS011;3547;50.774;12.918;2023-04-03T02:00:42;1.67;;;0.83;;
7013;SDS011;3547;50.774;12.918;2023-04-03T02:03:08;1.37;;;0.80;;
7013;SDS011;3547;50.774;12.918;2023-04-03T02:05:34;2.80;;;0.80;;
7013;SDS011;3547;50.774;12.918;2023-04-03T02:08:01;0.60;;;0.60;;
7013;SDS011;3547;50.774;12.918;2023-04-03T02:10:27;2.00;;;0.90;;
7013;SDS011;3547;50.774;12.918;2023-04-03T02:12:53;2.27;;;1.03;;
7013;SDS011;3547;50.774;12.918;2023-04-03T02:15:19;2.03;;;0.97;;
7013;SDS011;3547;50.774;12.918;2023-04-03T02:17:46;0.90;;;0.73;;
7013;SDS011;3547;50.774;12.918;2023-04-03T02:20:12;0.93;;;0.73;;
7013;SDS011;3547;50.774;12.918;2023-04-03T02:22:38;1.27;;;0.57;;
7013;SDS011;3547;50.774;12.918;2023-04-03T02:25:04;1.33;;;1.03;;
7013;SDS011;3547;50.774;12.918;2023-04-03T02:27:31;1.47;;;1.17;;
7013;SDS011;3547;50.774;12.918;2023-04-03T02:29:57;1.00;;;0.80;;
7013;SDS011;3547;50.774;12.918;2023-04-03T02:32:23;1.50;;;0.90;;
7013;SDS011;3547;50.774;12.918;2023-04-03T02:34:49;0.50;;;0.50;;
7013;SDS011;3547;50.774;12.918;2023-04-03T02:37:15;2.27;;;0.90;;
7013;SDS011;3547;50.774;12.918;2023-04-03T02:39:41;8.17;;;1.33;;
7013;SDS011;3547;50.774;12.918;2023-04-03T02:42:08;1.13;;;0.93;;
7013;SDS011;3547;50.774;12.918;2023-04-03T02:44:34;1.67;;;0.77;;
7013;SDS011;3547;50.774;12.918;2023-04-03T02:47:01;1.37;;;0.77;;
7013;SDS011;3547;50.774;12.918;2023-04-03T02:49:28;0.80;;;0.60;;
7013;SDS011;3547;50.774;12.918;2023-04-03T02:51:54;4.00;;;0.80;;
7013;SDS011;3547;50.774;12.918;2023-04-03T02:54:20;3.07;;;0.73;;
7013;SDS011;3547;50.774;12.918;2023-04-03T02:56:48;2.37;;;0.80;;
7013;SDS011;3547;50.774;12.918;2023-04-03T02:59:15;3.40;;;0.97;;
7013;SDS011;3547;50.774;12.918;2023-04-03T03:01:41;0.97;;;0.70;;
7013;SDS011;3547;50.774;12.918;2023-04-03T03:04:07;1.57;;;1.00;;
7013;SDS011;3547;50.774;12.918;2023-04-03T03:06:33;1.53;;;1.13;;
7013;SDS011;3547;50.774;12.918;2023-04-03T03:09:00;2.03;;;0.80;;
7013;SDS011;3547;50.774;12.918;2023-04-03T03:11:26;2.80;;;1.07;;
7013;SDS011;3547;50.774;12.918;2023-04-03T03:13:52;4.63;;;1.20;;
7013;SDS011;3547;50.774;12.918;2023-04-03T03:16:18;1.17;;;1.03;;
7013;SDS011;3547;50.774;12.918;2023-04-03T03:18:44;1.20;;;1.00;;
7013;SDS011;3547;50.774;12.918;2023-04-03T03:21:11;1.30;;;1.00;;
7013;SDS011;3547;50.774;12.918;2023-04-03T03:23:37;3.10;;;1.17;;
7013;SDS011;3547;50.774;12.918;2023-04-03T03:26:07;2.90;;;1.27;;
7013;SDS011;3547;50.774;12.918;2023-04-03T03:28:35;1.57;;;1.13;;
7013;SDS011;3547;50.774;12.918;2023-04-03T03:31:03;0.63;;;0.57;;
7013;SDS011;3547;50.774;12.918;2023-04-03T03:33:30;1.73;;;1.03;;
7013;SDS011;3547;50.774;12.918;2023-04-03T03:35:57;2.57;;;1.20;;
7013;SDS011;3547;50.774;12.918;2023-04-03T03:38:23;0.43;;;0.43;;
7013;SDS011;3547;50.774;12.918;2023-04-03T03:40:50;3.83;;;1.30;;
7013;SDS011;3547;50.774;12.918;2023-04-03T03:43:17;1.20;;;0.80;;
7013;SDS011;3547;50.774;12.918;2023-04-03T03:45:44;1.63;;;1.17;;
7013;SDS011;3547;50.774;12.918;2023-04-03T03:48:11;3.97;;;1.17;;
7013;SDS011;3547;50.774;12.918;2023-04-03T03:50:37;2.77;;;1.37;;
7013;SDS011;3547;50.774;12.918;2023-04-03T03:53:03;1.20;;;0.90;;
7013;SDS011;3547;50.774;12.918;2023-04-03T03:55:30;6.60;;;1.33;;
7013;SDS011;3547;50.774;12.918;2023-04-03T03:57:56;1.90;;;1.07;;
7013;SDS011;3547;50.774;12.918;2023-04-03T04:00:22;1.37;;;0.93;;
7013;SDS011;3547;50.774;12.918;2023-04-03T04:02:48;4.37;;;1.63;;
7013;SDS011;3547;50.774;12.918;2023-04-03T04:05:15;1.73;;;1.07;;
7013;SDS011;3547;50.774;12.918;2023-04-03T04:07:41;1.83;;;1.27;;
7013;SDS011;3547;50.774;12.918;2023-04-03T04:10:08;1.97;;;1.30;;
7013;SDS011;3547;50.774;12.918;2023-04-03T04:12:34;2.60;;;1.20;;
7013;SDS011;3547;50.774;12.918;2023-04-03T04:15:01;4.03;;;1.90;;
7013;SDS011;3547;50.774;12.918;2023-04-03T04:17:28;2.07;;;1.53;;
7013;SDS011;3547;50.774;12.918;2023-04-03T04:19:54;1.60;;;1.40;;
7013;SDS011;3547;50.774;12.918;2023-04-03T04:22:20;11.53;;;1.33;;
7013;SDS011;3547;50.774;12.918;2023-04-03T04:24:46;2.40;;;1.40;;
7013;SDS011;3547;50.774;12.918;2023-04-03T04:27:12;6.50;;;1.73;;
7013;SDS011;3547;50.774;12.918;2023-04-03T04:29:38;1.90;;;1.20;;
7013;SDS011;3547;50.774;12.918;2023-04-03T04:32:04;1.60;;;1.07;;
7013;SDS011;3547;50.774;12.918;2023-04-03T04:34:30;2.17;;;1.20;;
7013;SDS011;3547;50.774;12.918;2023-04-03T04:36:57;3.30;;;1.30;;
7013;SDS011;3547;50.774;12.918;2023-04-03T04:39:23;3.33;;;1.13;;
7013;SDS011;3547;50.774;12.918;2023-04-03T04:41:49;2.83;;;1.47;;
7013;SDS011;3547;50.774;12.918;2023-04-03T04:44:15;1.07;;;0.80;;
7013;SDS011;3547;50.774;12.918;2023-04-03T04:46:41;3.90;;;1.40;;
7013;SDS011;3547;50.774;12.918;2023-04-03T04:49:08;2.13;;;1.20;;
7013;SDS011;3547;50.774;12.918;2023-04-03T04:51:34;2.23;;;0.90;;
7013;SDS011;3547;50.774;12.918;2023-04-03T04:54:00;2.10;;;1.37;;
7013;SDS011;3547;50.774;12.918;2023-04-03T04:56:26;2.23;;;1.00;;
7013;SDS011;3547;50.774;12.918;2023-04-03T04:58:52;4.00;;;1.30;;
7013;SDS011;3547;50.774;12.918;2023-04-03T05:01:18;2.20;;;1.47;;
7013;SDS011;3547;50.774;12.918;2023-04-03T05:03:44;4.40;;;1.10;;
7013;SDS011;3547;50.774;12.918;2023-04-03T05:08:58;1.47;;;0.90;;
7013;SDS011;3547;50.774;12.918;2023-04-03T05:11:24;4.33;;;1.13;;
7013;SDS011;3547;50.774;12.918;2023-04-03T05:13:51;5.87;;;1.77;;
7013;SDS011;3547;50.774;12.918;2023-04-03T05:16:17;2.57;;;1.10;;
7013;SDS011;3547;50.774;12.918;2023-04-03T05:18:43;2.10;;;1.07;;
7013;SDS011;3547;50.774;12.918;2023-04-03T05:21:09;2.37;;;1.37;;
7013;SDS011;3547;50.774;12.918;2023-04-03T05:23:35;1.67;;;1.27;;
7013;SDS011;3547;50.774;12.918;2023-04-03T05:26:01;3.67;;;1.57;;
7013;SDS011;3547;50.774;12.918;2023-04-03T05:28:27;2.20;;;1.70;;
7013;SDS011;3547;50.774;12.918;2023-04-03T05:30:54;2.97;;;1.57;;
7013;SDS011;3547;50.774;12.918;2023-04-03T05:33:21;5.43;;;1.60;;
7013;SDS011;3547;50.774;12.918;2023-04-03T05:35:48;4.53;;;1.30;;
7013;SDS011;3547;50.774;12.918;2023-04-03T05:38:14;5.13;;;1.83;;
7013;SDS011;3547;50.774;12.918;2023-04-03T05:40:41;1.93;;;1.20;;
7013;SDS011;3547;50.774;12.918;2023-04-03T05:43:07;2.63;;;1.53;;
7013;SDS011;3547;50.774;12.918;2023-04-03T05:45:33;3.13;;;1.47;;
7013;SDS011;3547;50.774;12.918;2023-04-03T05:47:59;2.23;;;1.30;;
7013;SDS011;3547;50.774;12.918;2023-04-03T05:50:25;4.87;;;1.90;;
7013;SDS011;3547;50.774;12.918;2023-04-03T05:52:52;3.03;;;1.70;;
7013;SDS011;3547;50.774;12.918;2023-04-03T05:55:20;4.00;;;1.80;;
7013;SDS011;3547;50.774;12.918;2023-04-03T05:57:46;2.90;;;1.53;;
7013;SDS011;3547;50.774;12.918;2023-04-03T06:00:13;4.90;;;1.90;;
7013;SDS011;3547;50.774;12.918;2023-04-03T06:02:41;2.30;;;1.83;;
7013;SDS011;3547;50.774;12.918;2023-04-03T06:05:09;2.47;;;1.80;;
7013;SDS011;3547;50.774;12.918;2023-04-03T06:07:37;2.07;;;1.60;;
7013;SDS011;3547;50.774;12.918;2023-04-03T06:10:03;3.13;;;1.80;;
7013;SDS011;3547;50.774;12.918;2023-04-03T06:12:30;3.17;;;1.90;;
7013;SDS011;3547;50.774;12.918;2023-04-03T06:14:56;3.57;;;1.90;;
7013;SDS011;3547;50.774;12.918;2023-04-03T06:17:23;5.40;;;2.27;;
7013;SDS011;3547;50.774;12.918;2023-04-03T06:19:49;3.43;;;1.73;;
7013;SDS011;3547;50.774;12.918;2023-04-03T06:22:16;3.40;;;1.90;;
7013;SDS011;3547;50.774;12.918;2023-04-03T06:24:42;4.17;;;1.63;;
7013;SDS011;3547;50.774;12.918;2023-04-03T06:27:09;2.23;;;1.80;;
7013;SDS011;3547;50.774;12.918;2023-04-03T06:29:36;2.27;;;1.67;;
7013;SDS011;3547;50.774;12.918;2023-04-03T06:32:03;1.83;;;1.70;;
7013;SDS011;3547;50.774;12.918;2023-04-03T06:34:29;5.73;;;1.63;;
7013;SDS011;3547;50.774;12.918;2023-04-03T06:36:55;6.20;;;1.40;;
7013;SDS011;3547;50.774;12.918;2023-04-03T06:39:22;3.53;;;1.90;;
7013;SDS011;3547;50.774;12.918;2023-04-03T06:41:48;2.23;;;1.53;;
7013;SDS011;3547;50.774;12.918;2023-04-03T06:44:16;2.77;;;1.40;;
7013;SDS011;3547;50.774;12.918;2023-04-03T06:46:42;2.20;;;1.40;;
7013;SDS011;3547;50.774;12.918;2023-04-03T06:49:10;7.47;;;2.00;;
7013;SDS011;3547;50.774;12.918;2023-04-03T06:51:36;2.53;;;1.40;;
7013;SDS011;3547;50.774;12.918;2023-04-03T06:54:03;3.77;;;1.80;;
7013;SDS011;3547;50.774;12.918;2023-04-03T06:56:31;6.67;;;1.67;;
7013;SDS011;3547;50.774;12.918;2023-04-03T06:58:58;2.07;;;1.77;;
7013;SDS011;3547;50.774;12.918;2023-04-03T07:01:24;2.27;;;1.57;;
7013;SDS011;3547;50.774;12.918;2023-04-03T07:03:53;1.37;;;1.27;;
7013;SDS011;3547;50.774;12.918;2023-04-03T07:06:20;1.70;;;0.97;;
7013;SDS011;3547;50.774;12.918;2023-04-03T07:08:47;1.70;;;1.20;;
7013;SDS011;3547;50.774;12.918;2023-04-03T07:11:14;2.60;;;1.60;;
7013;SDS011;3547;50.774;12.918;2023-04-03T07:13:41;7.03;;;1.90;;
7013;SDS011;3547;50.774;12.918;2023-04-03T07:16:08;2.77;;;1.60;;
7013;SDS011;3547;50.774;12.918;2023-04-03T07:18:34;2.33;;;1.77;;
7013;SDS011;3547;50.774;12.918;2023-04-03T07:21:01;2.50;;;1.50;;
7013;SDS011;3547;50.774;12.918;2023-04-03T07:23:28;2.03;;;1.70;;
7013;SDS011;3547;50.774;12.918;2023-04-03T07:25:54;2.47;;;1.70;;
7013;SDS011;3547;50.774;12.918;2023-04-03T07:28:21;2.33;;;1.30;;
7013;SDS011;3547;50.774;12.918;2023-04-03T07:30:52;2.83;;;1.80;;
7013;SDS011;3547;50.774;12.918;2023-04-03T07:33:39;3.70;;;1.53;;
7013;SDS011;3547;50.774;12.918;2023-04-03T07:36:06;2.10;;;1.60;;
7013;SDS011;3547;50.774;12.918;2023-04-03T07:38:34;4.03;;;1.70;;
7013;SDS011;3547;50.774;12.918;2023-04-03T07:41:02;3.80;;;1.53;;
7013;SDS011;3547;50.774;12.918;2023-04-03T07:43:29;2.30;;;1.70;;
7013;SDS011;3547;50.774;12.918;2023-04-03T07:49:17;1.47;;;1.37;;
7013;SDS011;3547;50.774;12.918;2023-04-03T07:51:44;4.93;;;1.70;;
7013;SDS011;3547;50.774;12.918;2023-04-03T07:54:10;1.87;;;1.43;;
7013;SDS011;3547;50.774;12.918;2023-04-03T07:56:37;3.20;;;1.60;;
7013;SDS011;3547;50.774;12.918;2023-04-03T07:59:03;2.67;;;1.50;;
7013;SDS011;3547;50.774;12.918;2023-04-03T08:01:29;3.57;;;1.93;;
7013;SDS011;3547;50.774;12.918;2023-04-03T08:03:57;2.37;;;1.30;;
7013;SDS011;3547;50.774;12.918;2023-04-03T08:06:24;12.00;;;2.10;;
7013;SDS011;3547;50.774;12.918;2023-04-03T08:08:50;4.23;;;1.77;;
7013;SDS011;3547;50.774;12.918;2023-04-03T08:11:17;1.23;;;1.13;;
7013;SDS011;3547;50.774;12.918;2023-04-03T08:13:44;4.60;;;1.90;;
7013;SDS011;3547;50.774;12.918;2023-04-03T08:16:12;1.70;;;1.30;;
7013;SDS011;3547;50.774;12.918;2023-04-03T08:18:42;2.13;;;1.60;;
7013;SDS011;3547;50.774;12.918;2023-04-03T08:21:12;2.43;;;1.60;;
7013;SDS011;3547;50.774;12.918;2023-04-03T08:23:39;3.33;;;1.67;;
7013;SDS011;3547;50.774;12.918;2023-04-03T08:26:07;2.40;;;1.47;;
7013;SDS011;3547;50.774;12.918;2023-04-03T08:28:34;1.50;;;1.40;;
7013;SDS011;3547;50.774;12.918;2023-04-03T08:31:09;4.67;;;1.73;;
7013;SDS011;3547;50.774;12.918;2023-04-03T08:33:38;3.60;;;1.60;;
7013;SDS011;3547;50.774;12.918;2023-04-03T08:36:05;1.57;;;1.40;;
7013;SDS011;3547;50.774;12.918;2023-04-03T08:38:34;1.33;;;1.20;;
7013;SDS011;3547;50.774;12.918;2023-04-03T08:43:57;1.00;;;1.00;;
7013;SDS011;3547;50.774;12.918;2023-04-03T08:46:26;1.27;;;1.00;;
7013;SDS011;3547;50.774;12.918;2023-04-03T08:49:23;1.83;;;1.07;;
7013;SDS011;3547;50.774;12.918;2023-04-03T08:51:51;2.37;;;1.53;;
7013;SDS011;3547;50.774;12.918;2023-04-03T08:54:25;1.37;;;1.27;;
7013;SDS011;3547;50.774;12.918;2023-04-03T08:56:58;3.97;;;1.60;;
7013;SDS011;3547;50.774;12.918;2023-04-03T08:59:29;2.17;;;1.37;;
7013;SDS011;3547;50.774;12.918;2023-04-03T09:02:00;4.63;;;1.43;;
7013;SDS011;3547;50.774;12.918;2023-04-03T09:04:32;2.33;;;1.40;;
7013;SDS011;3547;50.774;12.918;2023-04-03T09:07:02;2.10;;;1.63;;
7013;SDS011;3547;50.774;12.918;2023-04-03T09:09:43;1.53;;;1.43;;
7013;SDS011;3547;50.774;12.918;2023-04-03T09:12:15;2.97;;;1.57;;
7013;SDS011;3547;50.774;12.918;2023-04-03T09:17:28;2.90;;;1.40;;
7013;SDS011;3547;50.774;12.918;2023-04-03T09:22:38;2.23;;;1.40;;
7013;SDS011;3547;50.774;12.918;2023-04-03T09:28:04;6.53;;;2.53;;
7013;SDS011;3547;50.774;12.918;2023-04-03T09:30:35;3.37;;;1.67;;
7013;SDS011;3547;50.774;12.918;2023-04-03T09:33:03;1.10;;;1.00;;
7013;SDS011;3547;50.774;12.918;2023-04-03T09:42:58;1.20;;;1.10;;
7013;SDS011;3547;50.774;12.918;2023-04-03T09:45:34;0.87;;;0.80;;
7013;SDS011;3547;50.774;12.918;2023-04-03T09:53:27;1.27;;;1.17;;
7013;SDS011;3547;50.774;12.918;2023-04-03T09:56:25;0.90;;;0.87;;
7013;SDS011;3547;50.774;12.918;2023-04-03T10:01:37;1.30;;;1.10;;
7013;SDS011;3547;50.774;12.918;2023-04-03T10:04:18;1.57;;;1.30;;
7013;SDS011;3547;50.774;12.918;2023-04-03T10:06:50;1.63;;;1.00;;
7013;SDS011;3547;50.774;12.918;2023-04-03T10:09:25;2.40;;;1.23;;
7013;SDS011;3547;50.774;12.918;2023-04-03T10:11:57;3.33;;;1.17;;
7013;SDS011;3547;50.774;12.918;2023-04-03T10:14:38;2.47;;;0.97;;
7013;SDS011;3547;50.774;12.918;2023-04-03T10:19:55;2.90;;;1.03;;
7013;SDS011;3547;50.774;12.918;2023-04-03T10:28:02;1.23;;;1.13;;
7013;SDS011;3547;50.774;12.918;2023-04-03T10:30:48;1.67;;;1.07;;
7013;SDS011;3547;50.774;12.918;2023-04-03T10:33:25;3.03;;;1.10;;
7013;SDS011;3547;50.774;12.918;2023-04-03T10:41:11;1.50;;;0.90;;
7013;SDS011;3547;50.774;12.918;2023-04-03T10:44:12;3.57;;;1.03;;
7013;SDS011;3547;50.774;12.918;2023-04-03T10:46:49;7.40;;;1.33;;
7013;SDS011;3547;50.774;12.918;2023-04-03T10:49:41;2.03;;;1.00;;
7013;SDS011;3547;50.774;12.918;2023-04-03T10:52:37;0.77;;;0.77;;
7013;SDS011;3547;50.774;12.918;2023-04-03T10:57:49;2.63;;;1.10;;
7013;SDS011;3547;50.774;12.918;2023-04-03T11:00:16;2.10;;;0.87;;
7013;SDS011;3547;50.774;12.918;2023-04-03T11:02:51;1.43;;;0.80;;
7013;SDS011;3547;50.774;12.918;2023-04-03T11:05:21;1.20;;;1.10;;
7013;SDS011;3547;50.774;12.918;2023-04-03T11:08:03;1.10;;;1.00;;
7013;SDS011;3547;50.774;12.918;2023-04-03T11:10:42;1.70;;;1.10;;
7013;SDS011;3547;50.774;12.918;2023-04-03T11:13:13;2.20;;;1.10;;
7013;SDS011;3547;50.774;12.918;2023-04-03T11:15:46;1.60;;;1.17;;
7013;SDS011;3547;50.774;12.918;2023-04-03T11:20:42;2.90;;;0.90;;
7013;SDS011;3547;50.774;12.918;2023-04-03T11:23:21;2.37;;;1.10;;
7013;SDS011;3547;50.774;12.918;2023-04-03T11:25:55;2.67;;;1.07;;
7013;SDS011;3547;50.774;12.918;2023-04-03T11:28:30;1.43;;;0.90;;
7013;SDS011;3547;50.774;12.918;2023-04-03T11:31:01;1.73;;;0.70;;
7013;SDS011;3547;50.774;12.918;2023-04-03T11:37:17;0.50;;;0.50;;
7013;SDS011;3547;50.774;12.918;2023-04-03T11:40:00;3.60;;;1.37;;
7013;SDS011;3547;50.774;12.918;2023-04-03T11:42:48;1.43;;;0.73;;
7013;SDS011;3547;50.774;12.918;2023-04-03T11:47:49;2.23;;;0.93;;
7013;SDS011;3547;50.774;12.918;2023-04-03T11:50:43;0.60;;;0.60;;
7013;SDS011;3547;50.774;12.918;2023-04-03T11:58:11;0.63;;;0.63;;
7013;SDS011;3547;50.774;12.918;2023-04-03T12:03:34;1.00;;;0.40;;
7013;SDS011;3547;50.774;12.918;2023-04-03T12:08:58;1.03;;;0.70;;
7013;SDS011;3547;50.774;12.918;2023-04-03T12:11:33;0.30;;;0.30;;
7013;SDS011;3547;50.774;12.918;2023-04-03T12:14:03;0.93;;;0.70;;
7013;SDS011;3547;50.774;12.918;2023-04-03T12:16:41;0.73;;;0.57;;
7013;SDS011;3547;50.774;12.918;2023-04-03T12:48:26;1.43;;;0.53;;
7013;SDS011;3547;50.774;12.918;2023-04-03T12:50:55;0.50;;;0.43;;
7013;SDS011;3547;50.774;12.918;2023-04-03T12:53:41;0.83;;;0.73;;
7013;SDS011;3547;50.774;12.918;2023-04-03T12:56:22;1.57;;;0.60;;
7013;SDS011;3547;50.774;12.918;2023-04-03T12:58:51;1.47;;;0.73;;
7013;SDS011;3547;50.774;12.918;2023-04-03T13:01:21;0.77;;;0.60;;
7013;SDS011;3547;50.774;12.918;2023-04-03T13:03:50;1.33;;;0.97;;
7013;SDS011;3547;50.774;12.918;2023-04-03T13:09:42;1.63;;;0.90;;
7013;SDS011;3547;50.774;12.918;2023-04-03T13:12:13;0.60;;;0.60;;
7013;SDS011;3547;50.774;12.918;2023-04-03T13:14:48;1.73;;;1.07;;
7013;SDS011;3547;50.774;12.918;2023-04-03T13:17:20;2.10;;;0.77;;
7013;SDS011;3547;50.774;12.918;2023-04-03T13:19:47;0.60;;;0.50;;
7013;SDS011;3547;50.774;12.918;2023-04-03T13:25:05;0.70;;;0.53;;
7013;SDS011;3547;50.774;12.918;2023-04-03T13:27:33;0.63;;;0.63;;
7013;SDS011;3547;50.774;12.918;2023-04-03T13:30:00;0.90;;;0.53;;
7013;SDS011;3547;50.774;12.918;2023-04-03T13:32:30;0.63;;;0.63;;
7013;SDS011;3547;50.774;12.918;2023-04-03T13:34:57;2.87;;;1.53;;
7013;SDS011;3547;50.774;12.918;2023-04-03T13:37:26;2.20;;;0.80;;
7013;SDS011;3547;50.774;12.918;2023-04-03T13:42:37;1.33;;;0.63;;
7013;SDS011;3547;50.774;12.918;2023-04-03T13:47:40;0.80;;;0.63;;
7013;SDS011;3547;50.774;12.918;2023-04-03T13:52:49;0.63;;;0.53;;
7013;SDS011;3547;50.774;12.918;2023-04-03T13:56:04;3.17;;;0.67;;
7013;SDS011;3547;50.774;12.918;2023-04-03T13:58:52;1.67;;;0.90;;
7013;SDS011;3547;50.774;12.918;2023-04-03T14:01:21;0.50;;;0.50;;
7013;SDS011;3547;50.774;12.918;2023-04-03T14:06:22;1.53;;;0.70;;
7013;SDS011;3547;50.774;12.918;2023-04-03T14:08:49;0.70;;;0.47;;
7013;SDS011;3547;50.774;12.918;2023-04-03T14:11:16;4.13;;;0.67;;
7013;SDS011;3547;50.774;12.918;2023-04-03T14:13:45;0.67;;;0.67;;
7013;SDS011;3547;50.774;12.918;2023-04-03T14:16:17;0.93;;;0.83;;
7013;SDS011;3547;50.774;12.918;2023-04-03T14:18:45;0.80;;;0.70;;
7013;SDS011;3547;50.774;12.918;2023-04-03T14:21:13;2.33;;;0.70;;
7013;SDS011;3547;50.774;12.918;2023-04-03T14:23:40;2.70;;;0.87;;
7013;SDS011;3547;50.774;12.918;2023-04-03T14:26:15;0.87;;;0.50;;
7013;SDS011;3547;50.774;12.918;2023-04-03T14:28:44;1.80;;;1.20;;
7013;SDS011;3547;50.774;12.918;2023-04-03T14:31:12;1.20;;;0.93;;
7013;SDS011;3547;50.774;12.918;2023-04-03T14:33:39;1.07;;;0.70;;
7013;SDS011;3547;50.774;12.918;2023-04-03T14:36:16;0.80;;;0.80;;
7013;SDS011;3547;50.774;12.918;2023-04-03T14:38:55;1.10;;;0.80;;
7013;SDS011;3547;50.774;12.918;2023-04-03T14:41:26;2.10;;;0.67;;
7013;SDS011;3547;50.774;12.918;2023-04-03T14:43:52;1.47;;;0.70;;
7013;SDS011;3547;50.774;12.918;2023-04-03T14:46:26;1.43;;;0.87;;
7013;SDS011;3547;50.774;12.918;2023-04-03T14:48:55;3.63;;;0.70;;
7013;SDS011;3547;50.774;12.918;2023-04-03T14:51:22;1.10;;;0.73;;
7013;SDS011;3547;50.774;12.918;2023-04-03T14:53:49;3.60;;;0.87;;
7013;SDS011;3547;50.774;12.918;2023-04-03T14:56:17;2.03;;;0.73;;
7013;SDS011;3547;50.774;12.918;2023-04-03T14:58:49;0.97;;;0.73;;
7013;SDS011;3547;50.774;12.918;2023-04-03T15:01:20;1.73;;;0.70;;
7013;SDS011;3547;50.774;12.918;2023-04-03T15:03:47;0.67;;;0.67;;
7013;SDS011;3547;50.774;12.918;2023-04-03T15:06:13;1.73;;;1.13;;
7013;SDS011;3547;50.774;12.918;2023-04-03T15:08:41;2.27;;;1.10;;
7013;SDS011;3547;50.774;12.918;2023-04-03T15:11:09;1.43;;;1.33;;
7013;SDS011;3547;50.774;12.918;2023-04-03T15:13:36;5.30;;;1.10;;
7013;SDS011;3547;50.774;12.918;2023-04-03T15:16:04;3.20;;;0.60;;
7013;SDS011;3547;50.774;12.918;2023-04-03T15:18:35;3.00;;;1.20;;
7013;SDS011;3547;50.774;12.918;2023-04-03T15:21:19;2.07;;;1.47;;
7013;SDS011;3547;50.774;12.918;2023-04-03T15:23:46;1.67;;;1.27;;
7013;SDS011;3547;50.774;12.918;2023-04-03T15:26:12;3.00;;;1.90;;
7013;SDS011;3547;50.774;12.918;2023-04-03T15:31:14;1.33;;;1.13;;
7013;SDS011;3547;50.774;12.918;2023-04-03T15:33:40;1.93;;;1.40;;
7013;SDS011;3547;50.774;12.918;2023-04-03T15:36:07;3.17;;;1.43;;
7013;SDS011;3547;50.774;12.918;2023-04-03T15:38:33;2.43;;;1.20;;
7013;SDS011;3547;50.774;12.918;2023-04-03T15:41:00;5.37;;;2.10;;
7013;SDS011;3547;50.774;12.918;2023-04-03T15:43:26;2.50;;;1.10;;
7013;SDS011;3547;50.774;12.918;2023-04-03T15:49:15;1.10;;;0.80;;
7013;SDS011;3547;50.774;12.918;2023-04-03T15:51:44;0.83;;;0.83;;
7013;SDS011;3547;50.774;12.918;2023-04-03T15:56:46;1.13;;;0.77;;
7013;SDS011;3547;50.774;12.918;2023-04-03T15:59:19;0.70;;;0.70;;
7013;SDS011;3547;50.774;12.918;2023-04-03T16:01:45;0.77;;;0.73;;
7013;SDS011;3547;50.774;12.918;2023-04-03T16:04:13;4.47;;;0.70;;
7013;SDS011;3547;50.774;12.918;2023-04-03T16:06:40;0.80;;;0.80;;
7013;SDS011;3547;50.774;12.918;2023-04-03T16:09:08;0.60;;;0.53;;
7013;SDS011;3547;50.774;12.918;2023-04-03T16:11:36;1.00;;;0.80;;
7013;SDS011;3547;50.774;12.918;2023-04-03T16:14:04;2.50;;;1.20;;
7013;SDS011;3547;50.774;12.918;2023-04-03T16:16:31;1.70;;;0.97;;
7013;SDS011;3547;50.774;12.918;2023-04-03T16:26:46;2.23;;;1.23;;
7013;SDS011;3547;50.774;12.918;2023-04-03T16:29:12;1.20;;;0.80;;
7013;SDS011;3547;50.774;12.918;2023-04-03T16:31:38;1.87;;;0.90;;
7013;SDS011;3547;50.774;12.918;2023-04-03T16:34:05;1.17;;;1.07;;
7013;SDS011;3547;50.774;12.918;2023-04-03T16:36:31;0.60;;;0.60;;
7013;SDS011;3547;50.774;12.918;2023-04-03T16:38:59;0.97;;;0.50;;
7013;SDS011;3547;50.774;12.918;2023-04-03T16:41:25;0.50;;;0.50;;
7013;SDS011;3547;50.774;12.918;2023-04-03T16:43:51;0.70;;;0.70;;
7013;SDS011;3547;50.774;12.918;2023-04-03T16:46:17;1.53;;;0.90;;
7013;SDS011;3547;50.774;12.918;2023-04-03T16:48:43;1.63;;;0.97;;
7013;SDS011;3547;50.774;12.918;2023-04-03T16:51:09;2.77;;;1.17;;
7013;SDS011;3547;50.774;12.918;2023-04-03T16:56:29;1.23;;;0.90;;
7013;SDS011;3547;50.774;12.918;2023-04-03T16:58:55;1.73;;;1.17;;
7013;SDS011;3547;50.774;12.918;2023-04-03T17:01:22;2.57;;;1.27;;
7013;SDS011;3547;50.774;12.918;2023-04-03T17:03:48;1.27;;;0.87;;
7013;SDS011;3547;50.774;12.918;2023-04-03T17:06:19;2.50;;;0.93;;
7013;SDS011;3547;50.774;12.918;2023-04-03T17:08:47;2.60;;;1.43;;
7013;SDS011;3547;50.774;12.918;2023-04-03T17:11:15;1.23;;;0.97;;
7013;SDS011;3547;50.774;12.918;2023-04-03T17:13:41;1.90;;;0.87;;
7013;SDS011;3547;50.774;12.918;2023-04-03T17:16:09;1.53;;;1.00;;
7013;SDS011;3547;50.774;12.918;2023-04-03T17:18:38;4.17;;;1.27;;
7013;SDS011;3547;50.774;12.918;2023-04-03T17:21:05;2.50;;;1.13;;
7013;SDS011;3547;50.774;12.918;2023-04-03T17:23:32;1.23;;;0.83;;
7013;SDS011;3547;50.774;12.918;2023-04-03T17:26:01;1.10;;;0.60;;
7013;SDS011;3547;50.774;12.918;2023-04-03T17:31:06;2.13;;;1.43;;
7013;SDS011;3547;50.774;12.918;2023-04-03T17:33:33;2.73;;;1.77;;
7013;SDS011;3547;50.774;12.918;2023-04-03T17:36:00;3.77;;;1.50;;
7013;SDS011;3547;50.774;12.918;2023-04-03T17:38:29;4.27;;;2.10;;
7013;SDS011;3547;50.774;12.918;2023-04-03T17:40:56;2.57;;;1.30;;